Time;durP1;ratioP1;P1;durP2;ratioP2;P2;SDS_P1;SDS_P2;PMS_P1;PMS_P2;Temp;Humidity;BMP_temperature;BMP_pressure;BME280_temperature;BME280_humidity;BME280_pressure;Samples;Min_cycle;Max_cycle;Signal;HPM_P1;HPM_P2
2021/01/02 00:01:26;;;;;;;;;;;;;;;1.14;100.00;100443.91;5049380;28;19967;-68
2021/01/02 00:04:25;;;;;;;;;;;;;;;1.13;100.00;100434.13;5052353;28;19932;-68
2021/01/02 00:06:57;;;;;;;;;;;;;;;1.09;100.00;100440.56;4990702;28;20022;-68
2021/01/02 00:09:23;;;;;;;;;;;;;;;1.02;100.00;100439.13;4990842;28;19976;-68
2021/01/02 00:12:00;;;;;;;;;;;;;;;0.97;100.00;100443.81;5020249;28;20451;-68
2021/01/02 00:14:33;;;;;;;;;;;;;;;0.89;100.00;100437.97;5052438;28;20015;-68
2021/01/02 00:17:12;;;;;;;;;;;;;;;0.82;100.00;100437.38;5051918;28;20035;-68
2021/01/02 00:19:56;;;;;;;;;;;;;;;0.77;100.00;100436.69;5052215;28;19960;-68
2021/01/02 00:22:28;;;;;;;;;;;;;;;0.72;100.00;100441.38;5051842;28;20012;-68
2021/01/02 00:24:55;;;;;;;;;;;;;;;0.69;100.00;100449.53;5052232;28;19948;-68
2021/01/02 00:27:25;;;;;;;;;;;;;;;0.63;100.00;100445.34;5051996;28;19986;-68
2021/01/02 00:30:07;;;;;;;;;;;;;;;0.57;100.00;100443.78;5052018;28;19925;-68
2021/01/02 00:32:39;;;;;;;;;;;;;;;0.52;100.00;100455.63;5052153;28;19935;-68
2021/01/02 00:35:06;;;;;;;;;;;;;;;0.46;100.00;100454.09;5051926;28;19925;-68
2021/01/02 00:37:35;;;;;;;;;;;;;;;0.52;100.00;100450.28;5051906;28;19951;-68
2021/01/02 00:40:04;;;;;;;;;;;;;;;0.45;100.00;100457.69;5051589;28;20313;-68
2021/01/02 00:42:30;;;;;;;;;;;;;;;0.39;100.00;100447.25;5051941;28;19929;-68
2021/01/02 00:44:57;;;;;;;;;;;;;;;0.30;100.00;100453.88;5051910;28;19924;-68
2021/01/02 00:47:25;;;;;;;;;;;;;;;0.18;100.00;100454.41;5051574;28;20020;-68
2021/01/02 00:49:54;;;;;;;;;;;;;;;0.07;100.00;100465.56;5050453;28;19924;-68
2021/01/02 00:52:22;;;;;;;;;;;;;;;0.00;100.00;100462.28;5051736;28;19929;-68
2021/01/02 00:54:55;;;;;;;;;;;;;;;-0.01;100.00;100468.53;5051590;28;19925;-68
2021/01/02 00:57:32;;;;;;;;;;;;;;;-0.07;100.00;100463.44;5050306;28;19931;-68
2021/01/02 01:00:04;;;;;;;;;;;;;;;-0.14;100.00;100460.16;5050090;28;20043;-68
2021/01/02 01:02:37;;;;;;;;;;;;;;;-0.24;100.00;100467.69;5051765;28;19932;-68
2021/01/02 01:05:05;;;;;;;;;;;;;;;-0.38;100.00;100470.03;5051595;28;20425;-68
2021/01/02 01:07:32;;;;;;;;;;;;;;;-0.48;100.00;100473.97;5051394;28;20027;-68
2021/01/02 01:09:59;;;;;;;;;;;;;;;-0.55;100.00;100473.34;5051382;28;19963;-68
2021/01/02 01:12:27;;;;;;;;;;;;;;;-0.66;100.00;100476.44;5051443;28;20024;-68
2021/01/02 01:14:54;;;;;;;;;;;;;;;-0.74;100.00;100474.06;5051388;28;19967;-68
2021/01/02 01:17:21;;;;;;;;;;;;;;;-0.85;100.00;100479.78;5051067;28;19964;-68
2021/01/02 01:19:51;;;;;;;;;;;;;;;-0.90;100.00;100479.09;5050488;28;20019;-67
2021/01/02 01:22:19;;;;;;;;;;;;;;;-0.99;100.00;100476.78;5051386;28;19959;-68
2021/01/02 01:24:47;;;;;;;;;;;;;;;-1.11;100.00;100483.44;5051339;28;20086;-68
2021/01/02 01:27:15;;;;;;;;;;;;;;;-1.20;100.00;100476.66;5050494;28;19925;-68
2021/01/02 01:29:42;;;;;;;;;;;;;;;-1.30;100.00;100480.56;5051144;28;19924;-68
2021/01/02 01:32:08;;;;;;;;;;;;;;;-1.38;100.00;100480.88;5051290;28;19925;-68
2021/01/02 01:34:34;;;;;;;;;;;;;;;-1.48;100.00;100483.88;5051071;28;19932;-69
2021/01/02 01:37:02;;;;;;;;;;;;;;;-1.61;100.00;100486.97;5051198;28;20007;-68
2021/01/02 01:39:31;;;;;;;;;;;;;;;-1.71;100.00;100485.53;5051692;28;20043;-68
2021/01/02 01:41:58;;;;;;;;;;;;;;;-1.77;100.00;100491.09;5049930;28;19982;-69
2021/01/02 01:44:39;;;;;;;;;;;;;;;-1.84;100.00;100487.78;5051131;28;20382;-69
2021/01/02 01:47:11;;;;;;;;;;;;;;;-1.86;100.00;100487.81;5050939;28;19968;-68
2021/01/02 01:50:04;;;;;;;;;;;;;;;-1.91;100.00;100497.75;5051098;28;19944;-68
2021/01/02 01:52:38;;;;;;;;;;;;;;;-1.90;100.00;100487.97;5051288;28;19931;-68
2021/01/02 01:55:06;;;;;;;;;;;;;;;-1.99;100.00;100493.59;5050761;28;19925;-68
2021/01/02 01:57:34;;;;;;;;;;;;;;;-2.10;100.00;100491.28;5049454;28;19964;-68
2021/01/02 02:00:08;;;;;;;;;;;;;;;-2.11;100.00;100492.19;5047662;28;20011;-68
2021/01/02 02:03:01;;;;;;;;;;;;;;;-2.12;100.00;100493.13;5050992;28;20426;-68
2021/01/02 02:05:32;;;;;;;;;;;;;;;-2.21;100.00;100495.16;5015250;28;19924;-68
2021/01/02 02:07:59;;;;;;;;;;;;;;;-2.20;100.00;100493.38;5051098;28;19964;-68
2021/01/02 02:10:27;;;;;;;;;;;;;;;-2.27;100.00;100492.72;5050909;28;19925;-68
2021/01/02 02:12:54;;;;;;;;;;;;;;;-2.33;100.00;100503.53;5050628;28;20380;-68
2021/01/02 02:15:21;;;;;;;;;;;;;;;-2.39;100.00;100496.63;5050901;28;19968;-68
2021/01/02 02:17:48;;;;;;;;;;;;;;;-2.48;100.00;100498.69;5050592;28;19925;-68
2021/01/02 02:20:16;;;;;;;;;;;;;;;-2.57;100.00;100498.03;5050690;28;19986;-68
2021/01/02 02:22:42;;;;;;;;;;;;;;;-2.61;100.00;100498.19;5050800;28;19971;-68
2021/01/02 02:25:09;;;;;;;;;;;;;;;-2.67;100.00;100503.69;5050473;28;20023;-68
2021/01/02 02:27:37;;;;;;;;;;;;;;;-2.73;100.00;100502.09;5050373;28;19964;-68
2021/01/02 02:30:05;;;;;;;;;;;;;;;-2.78;100.00;100502.25;5049978;28;20314;-68
2021/01/02 02:32:34;;;;;;;;;;;;;;;-2.83;100.00;100497.94;5050573;28;19979;-68
2021/01/02 02:35:02;;;;;;;;;;;;;;;-2.87;100.00;100503.38;5050684;28;20382;-68
2021/01/02 02:37:27;;;;;;;;;;;;;;;-2.83;100.00;100497.94;5049229;28;20031;-68
2021/01/02 02:39:53;;;;;;;;;;;;;;;-2.80;100.00;100512.03;5053016;28;19924;-68
2021/01/02 02:42:21;;;;;;;;;;;;;;;-2.84;100.00;100513.03;5054166;28;19929;-68
2021/01/02 02:44:49;;;;;;;;;;;;;;;-2.81;100.00;100510.28;5052922;28;19964;-68
2021/01/02 02:47:17;;;;;;;;;;;;;;;-2.83;100.00;100517.44;5052656;28;19925;-68
2021/01/02 02:49:46;;;;;;;;;;;;;;;-2.82;100.00;100510.31;5053685;28;20343;-68
2021/01/02 02:52:15;;;;;;;;;;;;;;;-2.87;100.00;100516.66;5054103;28;20074;-68
2021/01/02 02:54:42;;;;;;;;;;;;;;;-2.97;100.00;100522.28;5052714;28;20291;-68
2021/01/02 02:57:09;;;;;;;;;;;;;;;-3.05;100.00;100522.47;5053594;28;19956;-68
2021/01/02 02:59:35;;;;;;;;;;;;;;;-3.14;100.00;100530.72;5053727;28;19928;-68
2021/01/02 03:02:04;;;;;;;;;;;;;;;-3.21;100.00;100533.56;5053779;28;19932;-68
2021/01/02 03:04:31;;;;;;;;;;;;;;;-3.27;100.00;100531.06;5053838;28;19967;-69
2021/01/02 03:06:57;;;;;;;;;;;;;;;-3.31;100.00;100529.41;5051909;28;20301;-68
2021/01/02 03:09:23;;;;;;;;;;;;;;;-3.36;100.00;100539.25;5053627;28;19925;-68
2021/01/02 03:11:49;;;;;;;;;;;;;;;-3.40;100.00;100535.81;5053596;28;20460;-68
2021/01/02 03:14:15;;;;;;;;;;;;;;;-3.43;100.00;100533.25;5053617;28;19932;-68
2021/01/02 03:16:40;;;;;;;;;;;;;;;-3.47;100.00;100538.69;5053399;28;20291;-68
2021/01/02 03:19:07;;;;;;;;;;;;;;;-3.47;100.00;100538.69;5053525;28;19924;-68
2021/01/02 03:21:33;;;;;;;;;;;;;;;-3.46;100.00;100540.41;5053441;28;20015;-68
2021/01/02 03:24:01;;;;;;;;;;;;;;;-3.47;100.00;100539.56;5053384;28;19925;-68
2021/01/02 03:26:26;;;;;;;;;;;;;;;-3.50;100.00;100550.25;5053071;28;19932;-68
2021/01/02 03:28:52;;;;;;;;;;;;;;;-3.51;100.00;100547.63;5052132;28;19935;-68
2021/01/02 03:31:18;;;;;;;;;;;;;;;-3.47;100.00;100542.19;5053178;28;19925;-68
2021/01/02 03:33:44;;;;;;;;;;;;;;;-3.42;100.00;100547.38;5053304;28;19931;-68
2021/01/02 03:36:11;;;;;;;;;;;;;;;-3.32;100.00;100545.38;5053023;28;19929;-68
2021/01/02 03:38:37;;;;;;;;;;;;;;;-3.27;100.00;100549.63;5053185;28;20016;-68
2021/01/02 03:41:03;;;;;;;;;;;;;;;-3.14;100.00;100557.25;5053051;28;19978;-68
2021/01/02 03:43:29;;;;;;;;;;;;;;;-2.96;100.00;100559.41;5053154;28;19933;-68
2021/01/02 03:45:55;;;;;;;;;;;;;;;-2.78;100.00;100554.50;5052478;28;19925;-68
2021/01/02 03:48:21;;;;;;;;;;;;;;;-2.64;100.00;100562.09;5053007;28;20023;-68
2021/01/02 03:50:47;;;;;;;;;;;;;;;-2.56;100.00;100558.25;5049090;28;20024;-68
2021/01/02 03:53:13;;;;;;;;;;;;;;;-2.40;100.00;100560.47;5053061;28;19925;-68
2021/01/02 03:55:40;;;;;;;;;;;;;;;-2.29;100.00;100568.13;5052562;28;20001;-68
2021/01/02 03:58:06;;;;;;;;;;;;;;;-2.17;100.00;100572.22;5052337;28;19925;-68
2021/01/02 04:00:32;;;;;;;;;;;;;;;-2.10;100.00;100571.97;5051792;28;20366;-68
2021/01/02 04:02:58;;;;;;;;;;;;;;;-2.02;100.00;100571.72;5052521;28;19928;-68
2021/01/02 04:05:23;;;;;;;;;;;;;;;-1.94;100.00;100569.66;5052558;28;19924;-68
2021/01/02 04:07:49;;;;;;;;;;;;;;;-1.86;100.00;100569.44;5051279;28;20023;-67
2021/01/02 04:10:16;;;;;;;;;;;;;;;-1.79;100.00;100572.75;5052502;28;20007;-68
2021/01/02 04:12:42;;;;;;;;;;;;;;;-1.73;100.00;100565.44;5052575;28;20053;-68
2021/01/02 04:15:08;;;;;;;;;;;;;;;-1.65;100.00;100570.53;5052327;28;20382;-68
2021/01/02 04:17:34;;;;;;;;;;;;;;;-1.56;100.00;100564.91;5052385;28;20019;-68
2021/01/02 04:19:59;;;;;;;;;;;;;;;-1.52;100.00;100569.19;5050950;28;20019;-68
2021/01/02 04:22:25;;;;;;;;;;;;;;;-1.45;100.00;100563.69;5052561;28;19932;-68
2021/01/02 04:24:51;;;;;;;;;;;;;;;-1.37;100.00;100558.94;5052442;28;19936;-68
2021/01/02 04:27:18;;;;;;;;;;;;;;;-1.31;100.00;100564.09;5052198;28;19967;-68
2021/01/02 04:29:43;;;;;;;;;;;;;;;-1.24;100.00;100564.75;5052194;28;20027;-68
2021/01/02 04:32:09;;;;;;;;;;;;;;;-1.15;100.00;100566.19;5052226;28;20508;-68
2021/01/02 04:34:35;;;;;;;;;;;;;;;-1.05;100.00;100570.28;5052258;28;19924;-67
2021/01/02 04:37:01;;;;;;;;;;;;;;;-0.96;100.00;100564.63;5052020;28;19925;-68
2021/01/02 04:39:26;;;;;;;;;;;;;;;-0.88;100.00;100567.88;5051432;28;19924;-68
2021/01/02 04:41:55;;;;;;;;;;;;;;;-0.79;100.00;100574.66;5051973;28;19925;-68
2021/01/02 04:44:22;;;;;;;;;;;;;;;-0.74;100.00;100571.84;5052410;28;19932;-67
2021/01/02 04:46:48;;;;;;;;;;;;;;;-0.68;100.00;100575.16;5052401;28;20306;-67
2021/01/02 04:49:14;;;;;;;;;;;;;;;-0.64;100.00;100577.69;5052374;28;19925;-66
2021/01/02 04:51:39;;;;;;;;;;;;;;;-0.62;100.00;100575.84;5052340;28;20412;-66
2021/01/02 04:54:07;;;;;;;;;;;;;;;-0.61;100.00;100569.59;5051938;28;19961;-67
2021/01/02 04:56:33;;;;;;;;;;;;;;;-0.60;100.00;100572.19;5051970;28;20011;-66
2021/01/02 04:59:00;;;;;;;;;;;;;;;-0.59;100.00;100568.63;5049148;28;20364;-67
2021/01/02 05:01:27;;;;;;;;;;;;;;;-0.56;100.00;100570.25;5051536;28;20365;-66
2021/01/02 05:03:53;;;;;;;;;;;;;;;-0.53;100.00;100578.16;5051161;28;19963;-67
2021/01/02 05:06:20;;;;;;;;;;;;;;;-0.50;100.00;100578.03;5051484;28;20449;-67
2021/01/02 05:08:46;;;;;;;;;;;;;;;-0.47;100.00;100577.06;5051596;28;20390;-67
2021/01/02 05:11:12;;;;;;;;;;;;;;;-0.47;100.00;100579.72;5051647;28;19931;-66
2021/01/02 05:13:38;;;;;;;;;;;;;;;-0.47;100.00;100574.41;5051604;28;20031;-67
2021/01/02 05:16:17;;;;;;;;;;;;;;;-0.45;100.00;100583.22;5051564;28;20047;-67
2021/01/02 05:18:53;;;;;;;;;;;;;;;-0.45;100.00;100585.88;5051068;28;19932;-68
2021/01/02 05:21:19;;;;;;;;;;;;;;;-0.43;100.00;100589.34;5051715;28;19971;-67
2021/01/02 05:24:00;;;;;;;;;;;;;;;-0.43;100.00;100587.53;5051736;28;19925;-68
2021/01/02 05:26:26;;;;;;;;;;;;;;;-0.41;100.00;100598.19;5051312;28;19972;-68
2021/01/02 05:29:06;;;;;;;;;;;;;;;-0.40;100.00;100594.56;5051048;28;19932;-68
2021/01/02 05:31:32;;;;;;;;;;;;;;;-0.37;100.00;100591.81;5051858;28;20007;-68
2021/01/02 05:34:03;;;;;;;;;;;;;;;-0.37;100.00;100599.81;5039703;28;19937;-68
2021/01/02 05:36:29;;;;;;;;;;;;;;;-0.35;100.00;100596.16;5031206;28;19963;-68
2021/01/02 05:38:55;;;;;;;;;;;;;;;-0.34;100.00;100592.53;5037223;28;20012;-68
2021/01/02 05:41:21;;;;;;;;;;;;;;;-0.30;100.00;100595.09;5050333;28;19932;-68
2021/01/02 05:43:47;;;;;;;;;;;;;;;-0.30;100.00;100601.28;5050919;28;19924;-68
2021/01/02 05:46:13;;;;;;;;;;;;;;;-0.28;100.00;100599.47;5050620;28;19925;-69
2021/01/02 05:48:38;;;;;;;;;;;;;;;-0.26;100.00;100608.25;5051231;28;19956;-69
2021/01/02 05:51:07;;;;;;;;;;;;;;;-0.26;100.00;100610.91;5050881;28;19928;-68
2021/01/02 05:53:33;;;;;;;;;;;;;;;-0.24;100.00;100601.06;5050695;28;20023;-68
2021/01/02 05:56:00;;;;;;;;;;;;;;;-0.21;100.00;100614.28;5038031;28;20288;-69
2021/01/02 05:58:26;;;;;;;;;;;;;;;-0.20;100.00;100610.69;5036134;28;20031;-68
2021/01/02 06:01:01;;;;;;;;;;;;;;;-0.20;100.00;100608.03;5050385;28;20417;-68
2021/01/02 06:03:27;;;;;;;;;;;;;;;-0.18;100.00;100611.50;5051021;28;19956;-68
2021/01/02 06:05:56;;;;;;;;;;;;;;;-0.19;100.00;100615.13;5050895;28;19995;-68
2021/01/02 06:08:30;;;;;;;;;;;;;;;-0.19;100.00;100617.78;5050729;28;20019;-68
2021/01/02 06:10:58;;;;;;;;;;;;;;;-0.22;100.00;100614.34;5050041;28;19924;-68
2021/01/02 06:13:26;;;;;;;;;;;;;;;-0.26;100.00;100618.94;5050729;28;19925;-68
2021/01/02 06:15:53;;;;;;;;;;;;;;;-0.30;100.00;100616.44;5054239;28;20023;-68
2021/01/02 06:18:19;;;;;;;;;;;;;;;-0.31;100.00;100617.38;5053749;28;19974;-68
2021/01/02 06:20:45;;;;;;;;;;;;;;;-0.31;100.00;100626.22;5054345;28;19928;-68
2021/01/02 06:23:13;;;;;;;;;;;;;;;-0.28;100.00;100623.47;5043889;28;19925;-69
2021/01/02 06:25:40;;;;;;;;;;;;;;;-0.28;100.00;100623.47;5054217;28;20003;-68
2021/01/02 06:28:07;;;;;;;;;;;;;;;-0.25;100.00;100623.34;5054393;28;19924;-68
2021/01/02 06:30:33;;;;;;;;;;;;;;;-0.25;100.00;100628.69;5053895;28;19929;-68
2021/01/02 06:32:59;;;;;;;;;;;;;;;-0.25;100.00;100631.34;5054470;28;20002;-68
2021/01/02 06:35:25;;;;;;;;;;;;;;;-0.30;100.00;100625.31;5054321;28;19924;-69
2021/01/02 06:38:09;;;;;;;;;;;;;;;-0.32;100.00;100629.84;5053947;28;20012;-68
2021/01/02 06:40:37;;;;;;;;;;;;;;;-0.30;100.00;100635.97;5039005;28;20019;-67
2021/01/02 06:43:04;;;;;;;;;;;;;;;-0.30;100.00;100635.97;5052398;28;19929;-67
2021/01/02 06:45:48;;;;;;;;;;;;;;;-0.30;100.00;100633.31;5053500;28;19957;-67
2021/01/02 06:48:30;;;;;;;;;;;;;;;-0.30;100.00;100638.66;5053809;28;20029;-66
2021/01/02 06:50:57;;;;;;;;;;;;;;;-0.30;100.00;100643.13;5053955;28;19929;-66
2021/01/02 06:53:24;;;;;;;;;;;;;;;-0.30;100.00;100649.31;5054141;28;20391;-68
2021/01/02 06:55:56;;;;;;;;;;;;;;;-0.29;100.00;100648.41;5053667;28;20009;-66
2021/01/02 06:58:23;;;;;;;;;;;;;;;-0.33;100.00;100654.78;5054156;28;19924;-68
2021/01/02 07:00:48;;;;;;;;;;;;;;;-0.34;100.00;100651.22;5053931;28;20015;-68
2021/01/02 07:03:29;;;;;;;;;;;;;;;-0.33;100.00;100657.44;5054005;28;19944;-68
2021/01/02 07:05:56;;;;;;;;;;;;;;;-0.31;100.00;100660.91;5053760;28;19925;-68
2021/01/02 07:08:41;;;;;;;;;;;;;;;-0.29;100.00;100655.53;5053755;28;19925;-68
2021/01/02 07:11:26;;;;;;;;;;;;;;;-0.25;100.00;100667.84;5053728;28;19931;-68
2021/01/02 07:14:06;;;;;;;;;;;;;;;-0.23;100.00;100663.28;5053904;28;19956;-68
2021/01/02 07:16:34;;;;;;;;;;;;;;;-0.22;100.00;100671.25;5053226;28;19978;-68
2021/01/02 07:19:00;;;;;;;;;;;;;;;-0.20;100.00;100658.72;5053646;28;19925;-68
2021/01/02 07:21:32;;;;;;;;;;;;;;;-0.19;100.00;100662.25;5053592;28;19925;-66
2021/01/02 07:24:13;;;;;;;;;;;;;;;-0.17;100.00;100671.94;5053456;28;19935;-66
2021/01/02 07:26:39;;;;;;;;;;;;;;;-0.13;100.00;100674.47;5052159;28;19931;-68
2021/01/02 07:29:05;;;;;;;;;;;;;;;-0.12;100.00;100677.13;5053533;28;20023;-66
2021/01/02 07:31:30;;;;;;;;;;;;;;;-0.18;100.00;100675.53;5053487;28;20309;-67
2021/01/02 07:33:57;;;;;;;;;;;;;;;-0.22;100.00;100684.56;5052479;28;20034;-68
2021/01/02 07:36:23;;;;;;;;;;;;;;;-0.18;100.00;100686.19;5053369;28;19925;-68
2021/01/02 07:38:50;;;;;;;;;;;;;;;-0.15;100.00;100685.22;5053157;28;19932;-68
2021/01/02 07:41:17;;;;;;;;;;;;;;;-0.12;100.00;100694.91;5053370;28;19964;-68
2021/01/02 07:43:43;;;;;;;;;;;;;;;-0.08;100.00;100694.75;5052817;28;19960;-68
2021/01/02 07:46:09;;;;;;;;;;;;;;;-0.08;100.00;100699.22;5053035;28;19932;-68
2021/01/02 07:48:34;;;;;;;;;;;;;;;-0.12;100.00;100706.47;5049969;28;19985;-68
2021/01/02 07:51:12;;;;;;;;;;;;;;;-0.12;100.00;100700.25;5053217;28;20295;-68
2021/01/02 07:53:38;;;;;;;;;;;;;;;-0.28;100.00;100708.84;5053052;28;20379;-68
2021/01/02 07:56:04;;;;;;;;;;;;;;;-0.36;100.00;100714.44;5052551;28;19928;-68
2021/01/02 07:58:30;;;;;;;;;;;;;;;-0.43;100.00;100723.56;5053299;28;19968;-72
2021/01/02 08:01:07;;;;;;;;;;;;;;;-0.44;100.00;100723.63;5052270;28;19925;-66
2021/01/02 08:03:34;;;;;;;;;;;;;;;-0.43;100.00;100722.72;5052335;28;20389;-66
2021/01/02 08:06:07;;;;;;;;;;;;;;;-0.43;100.00;100718.25;5052581;28;20019;-66
2021/01/02 08:08:33;;;;;;;;;;;;;;;-0.45;100.00;100725.44;5052382;28;20454;-66
2021/01/02 08:10:59;;;;;;;;;;;;;;;-0.46;100.00;100728.16;5052663;28;20011;-66
2021/01/02 08:13:25;;;;;;;;;;;;;;;-0.41;100.00;100727.06;5052201;28;20272;-66
2021/01/02 08:15:52;;;;;;;;;;;;;;;-0.31;100.00;100732.94;5052255;28;19936;-66
2021/01/02 08:18:18;;;;;;;;;;;;;;;-0.24;100.00;100739.81;5052206;28;19924;-66
2021/01/02 08:20:43;;;;;;;;;;;;;;;-0.12;100.00;100745.63;5051524;28;19986;-66
2021/01/02 08:23:09;;;;;;;;;;;;;;;-0.03;100.00;100732.81;5052281;28;20151;-66
2021/01/02 08:25:36;;;;;;;;;;;;;;;0.03;100.00;100741.50;5052307;28;19928;-66
2021/01/02 08:28:03;;;;;;;;;;;;;;;-0.04;100.00;100739.09;5052315;28;19951;-66
2021/01/02 08:30:29;;;;;;;;;;;;;;;-0.05;100.00;100747.16;5037316;28;19953;-66
2021/01/02 08:32:56;;;;;;;;;;;;;;;-0.02;100.00;100750.56;5036263;28;19960;-67
2021/01/02 08:35:26;;;;;;;;;;;;;;;-0.03;100.00;100748.84;5050952;28;20120;-65
2021/01/02 08:37:52;;;;;;;;;;;;;;;-0.15;100.00;100753.75;5048788;28;20419;-66
2021/01/02 08:40:18;;;;;;;;;;;;;;;-0.15;100.00;100757.28;5034640;28;20028;-66
2021/01/02 08:42:46;;;;;;;;;;;;;;;-0.23;100.00;100762.03;5032041;28;20444;-66
2021/01/02 08:45:13;;;;;;;;;;;;;;;-0.28;100.00;100758.63;5031919;28;20031;-65
2021/01/02 08:47:40;;;;;;;;;;;;;;;-0.23;100.00;100757.56;5031619;28;19925;-65
2021/01/02 08:50:12;;;;;;;;;;;;;;;-0.20;100.00;100764.56;5031703;28;20019;-66
2021/01/02 08:52:39;;;;;;;;;;;;;;;-0.14;100.00;100764.34;5032034;28;20020;-66
2021/01/02 08:55:10;;;;;;;;;;;;;;;-0.01;100.00;100760.31;5031404;28;19964;-66
2021/01/02 08:57:41;;;;;;;;;;;;;;;0.21;100.00;100766.66;5031584;28;19968;-66
2021/01/02 09:00:25;;;;;;;;;;;;;;;0.33;100.00;100763.53;5040877;28;20028;-66
2021/01/02 09:03:05;;;;;;;;;;;;;;;0.57;100.00;100764.38;5031490;28;20028;-66
2021/01/02 09:05:32;;;;;;;;;;;;;;;0.70;100.00;100770.13;5031602;28;19932;-66
2021/01/02 09:07:59;;;;;;;;;;;;;;;0.58;100.00;100766.13;5031334;28;19925;-66
2021/01/02 09:10:26;;;;;;;;;;;;;;;0.71;100.00;100766.53;5030258;28;20290;-66
2021/01/02 09:13:03;;;;;;;;;;;;;;;0.47;100.00;100766.53;5031237;28;20402;-66
2021/01/02 09:15:45;;;;;;;;;;;;;;;0.49;100.00;100763.81;5031621;28;19980;-66
2021/01/02 09:18:12;;;;;;;;;;;;;;;0.50;100.00;100779.78;5031511;28;19961;-67
2021/01/02 09:20:38;;;;;;;;;;;;;;;0.42;100.00;100786.34;5040741;28;20027;-66
2021/01/02 09:23:04;;;;;;;;;;;;;;;0.49;100.00;100778.06;5048126;28;20043;-67
2021/01/02 09:25:30;;;;;;;;;;;;;;;0.56;100.00;100785.81;5051095;28;20358;-66
2021/01/02 09:27:56;;;;;;;;;;;;;;;0.54;100.00;100782.34;5050610;28;19928;-66
2021/01/02 09:30:22;;;;;;;;;;;;;;;0.34;100.00;100783.97;5045739;28;20522;-67
2021/01/02 09:32:48;;;;;;;;;;;;;;;0.23;100.00;100797.72;5047997;28;19925;-66
2021/01/02 09:35:14;;;;;;;;;;;;;;;0.10;100.00;100791.94;5051216;28;20404;-66
2021/01/02 09:37:41;;;;;;;;;;;;;;;0.09;100.00;100798.22;5050932;28;20008;-67
2021/01/02 09:40:12;;;;;;;;;;;;;;;0.17;100.00;100800.59;5051095;28;20017;-67
2021/01/02 09:42:38;;;;;;;;;;;;;;;0.29;100.00;100796.63;5051206;28;20015;-67
2021/01/02 09:45:05;;;;;;;;;;;;;;;0.37;100.00;100797.19;5047728;28;19929;-67
2021/01/02 09:47:30;;;;;;;;;;;;;;;0.61;100.00;100800.72;5050618;28;19935;-67
2021/01/02 09:49:56;;;;;;;;;;;;;;;0.48;100.00;100803.00;5053949;28;19924;-67
2021/01/02 09:52:22;;;;;;;;;;;;;;;0.41;100.00;100800.63;5055137;28;19932;-68
2021/01/02 09:54:48;;;;;;;;;;;;;;;0.65;100.00;100802.34;5055071;28;19925;-67
2021/01/02 09:57:14;;;;;;;;;;;;;;;0.71;100.00;100801.25;5054815;28;19933;-67
2021/01/02 09:59:42;;;;;;;;;;;;;;;1.08;100.00;100791.78;5054626;28;20074;-67
2021/01/02 10:02:08;;;;;;;;;;;;;;;1.75;100.00;100781.84;5055113;28;20322;-67
2021/01/02 10:04:34;;;;;;;;;;;;;;;2.15;100.00;100782.75;5054784;28;19940;-67
2021/01/02 10:06:59;;;;;;;;;;;;;;;2.49;100.00;100783.88;5054497;28;19932;-67
2021/01/02 10:09:25;;;;;;;;;;;;;;;2.56;100.00;100773.72;5054808;28;19946;-67
2021/01/02 10:11:51;;;;;;;;;;;;;;;2.62;100.00;100780.59;5054900;28;19929;-68
2021/01/02 10:14:17;;;;;;;;;;;;;;;2.56;100.00;100773.72;5054691;28;19925;-67
2021/01/02 10:16:43;;;;;;;;;;;;;;;2.46;100.00;100767.94;5054540;28;20035;-67
2021/01/02 10:19:09;;;;;;;;;;;;;;;2.45;100.00;100773.38;5054666;28;20359;-67
2021/01/02 10:21:35;;;;;;;;;;;;;;;2.34;100.00;100781.91;5054570;28;20011;-67
2021/01/02 10:24:01;;;;;;;;;;;;;;;2.20;100.00;100782.53;5054213;28;20656;-67
2021/01/02 10:26:27;;;;;;;;;;;;;;;2.17;100.00;100775.50;5054327;28;19928;-67
2021/01/02 10:28:52;;;;;;;;;;;;;;;2.16;100.00;100771.09;5054470;28;19924;-68
2021/01/02 10:31:19;;;;;;;;;;;;;;;2.13;100.00;100781.06;5054336;28;19925;-67
2021/01/02 10:33:45;;;;;;;;;;;;;;;2.00;100.00;100770.03;5054314;28;19963;-67
2021/01/02 10:36:11;;;;;;;;;;;;;;;2.16;100.00;100765.75;5054010;28;19974;-67
2021/01/02 10:38:37;;;;;;;;;;;;;;;1.93;100.00;100765.91;5053982;28;19936;-66
2021/01/02 10:41:03;;;;;;;;;;;;;;;1.75;100.00;100775.59;5033914;28;19976;-67
2021/01/02 10:43:29;;;;;;;;;;;;;;;1.85;100.00;100766.25;5050078;28;19959;-66
2021/01/02 10:45:55;;;;;;;;;;;;;;;1.96;100.00;100769.28;5052793;28;19924;-66
2021/01/02 10:48:21;;;;;;;;;;;;;;;2.02;100.00;100768.16;5052778;28;20368;-66
2021/01/02 10:50:47;;;;;;;;;;;;;;;2.15;100.00;100765.78;5051578;28;20024;-67
2021/01/02 10:53:13;;;;;;;;;;;;;;;2.26;100.00;100760.81;5048284;28;20386;-67
2021/01/02 10:55:39;;;;;;;;;;;;;;;2.39;100.00;100760.25;5052430;28;19933;-66
2021/01/02 10:58:04;;;;;;;;;;;;;;;2.42;100.00;100750.28;5053595;28;20409;-68
2021/01/02 11:00:30;;;;;;;;;;;;;;;2.61;100.00;100752.09;5052033;28;20165;-68
2021/01/02 11:02:56;;;;;;;;;;;;;;;2.73;100.00;100754.16;5045305;28;19938;-67
2021/01/02 11:05:22;;;;;;;;;;;;;;;2.87;100.00;100756.16;5053842;28;19948;-68
2021/01/02 11:07:48;;;;;;;;;;;;;;;2.92;100.00;100753.28;5053630;28;20412;-68
2021/01/02 11:10:14;;;;;;;;;;;;;;;2.92;100.00;100754.13;5053199;28;19937;-68
2021/01/02 11:12:40;;;;;;;;;;;;;;;3.04;100.00;100744.63;5052593;28;19979;-68
2021/01/02 11:15:07;;;;;;;;;;;;;;;3.27;100.00;100745.28;5053015;28;20383;-68
2021/01/02 11:17:33;;;;;;;;;;;;;;;3.43;100.00;100746.25;5053002;28;20496;-68
2021/01/02 11:19:59;;;;;;;;;;;;;;;3.80;100.00;100738.97;5052923;28;19932;-68
2021/01/02 11:22:25;;;;;;;;;;;;;;;4.14;100.00;100741.66;5053207;28;19932;-68
2021/01/02 11:24:51;;;;;;;;;;;;;;;3.77;100.00;100731.09;5047700;28;20023;-69
2021/01/02 11:27:18;;;;;;;;;;;;;;;3.50;100.00;100731.56;5049576;28;19995;-68
2021/01/02 11:29:44;;;;;;;;;;;;;;;3.32;100.00;100740.56;5052376;28;20358;-68
2021/01/02 11:32:11;;;;;;;;;;;;;;;3.20;100.00;100741.19;5051822;28;20017;-68
2021/01/02 11:34:37;;;;;;;;;;;;;;;3.46;100.00;100738.06;5053333;28;20021;-69
2021/01/02 11:37:03;;;;;;;;;;;;;;;3.34;100.00;100738.66;5048707;28;19968;-67
2021/01/02 11:39:31;;;;;;;;;;;;;;;3.54;100.00;100734.09;5053329;28;19967;-70
2021/01/02 11:41:58;;;;;;;;;;;;;;;3.28;100.00;100730.94;5053010;28;19936;-69
2021/01/02 11:44:25;;;;;;;;;;;;;;;3.18;100.00;100731.41;5053085;28;19963;-69
2021/01/02 11:46:52;;;;;;;;;;;;;;;3.44;100.00;100728.34;5051595;28;19976;-68
2021/01/02 11:49:19;;;;;;;;;;;;;;;3.37;100.00;100727.78;5052188;28;20015;-69
2021/01/02 11:51:48;;;;;;;;;;;;;;;3.22;100.00;100733.91;5052618;28;20016;-69
2021/01/02 11:54:14;;;;;;;;;;;;;;;3.01;100.00;100740.28;5052451;28;20349;-69
2021/01/02 11:56:40;;;;;;;;;;;;;;;3.00;100.00;100743.03;5052653;28;19971;-69
2021/01/02 11:59:06;;;;;;;;;;;;;;;2.98;100.00;100743.13;5050850;28;19959;-69
2021/01/02 12:01:33;;;;;;;;;;;;;;;3.26;100.00;100739.06;5052546;28;20370;-69
2021/01/02 12:03:59;;;;;;;;;;;;;;;3.42;100.00;100740.94;5051894;28;19971;-69
2021/01/02 12:06:27;;;;;;;;;;;;;;;3.56;100.00;100742.94;5052510;28;19924;-69
2021/01/02 12:08:52;;;;;;;;;;;;;;;3.66;100.00;100737.03;5051972;28;20023;-69
2021/01/02 12:11:24;;;;;;;;;;;;;;;3.74;100.00;100730.38;5052072;28;20251;-69
2021/01/02 12:13:51;;;;;;;;;;;;;;;3.71;100.00;100736.75;5052263;28;20027;-69
2021/01/02 12:16:16;;;;;;;;;;;;;;;3.45;100.00;100741.69;5051938;28;20023;-69
2021/01/02 12:18:42;;;;;;;;;;;;;;;3.64;100.00;100735.34;5052038;28;19978;-69
2021/01/02 12:21:08;;;;;;;;;;;;;;;3.83;100.00;100730.75;5052071;28;19925;-69
2021/01/02 12:23:34;;;;;;;;;;;;;;;3.90;100.00;100743.84;5051925;28;19928;-69
2021/01/02 12:25:59;;;;;;;;;;;;;;;4.06;100.00;100739.38;5052189;28;19961;-69
2021/01/02 12:28:25;;;;;;;;;;;;;;;4.13;100.00;100738.13;5051728;28;19931;-69
2021/01/02 12:30:52;;;;;;;;;;;;;;;4.17;100.00;100739.69;5051966;28;19936;-69
2021/01/02 12:33:18;;;;;;;;;;;;;;;4.05;100.00;100743.03;5051878;28;20143;-69
2021/01/02 12:35:43;;;;;;;;;;;;;;;3.79;100.00;100739.06;5051182;28;19925;-69